createdAt,value
2023-12-29T00:00:30.209Z,9.50
2023-12-29T00:02:56.963Z,9.50
2023-12-29T00:05:23.702Z,9.50
2023-12-29T00:07:50.451Z,9.50
2023-12-29T00:10:17.455Z,9.50
2023-12-29T00:12:44.214Z,9.60
2023-12-29T00:15:11.601Z,9.60
2023-12-29T00:17:38.907Z,9.60
2023-12-29T00:20:06.466Z,9.50
2023-12-29T00:22:33.208Z,9.50
2023-12-29T00:24:59.950Z,9.50
2023-12-29T00:27:26.725Z,9.50
2023-12-29T00:29:54.360Z,9.50
2023-12-29T00:32:21.635Z,9.40
2023-12-29T00:34:48.482Z,9.40
2023-12-29T00:37:15.484Z,9.40
2023-12-29T00:39:42.289Z,9.40
2023-12-29T00:42:09.041Z,9.40
2023-12-29T00:44:36.460Z,9.40
2023-12-29T00:47:03.397Z,9.40
2023-12-29T00:49:30.279Z,9.40
2023-12-29T00:51:57.250Z,9.40
2023-12-29T00:54:25.578Z,9.40
2023-12-29T00:56:53.738Z,9.40
2023-12-29T00:59:21.937Z,9.50
2023-12-29T01:01:49.130Z,9.40
2023-12-29T01:04:16.079Z,9.30
2023-12-29T01:06:42.912Z,9.30
2023-12-29T01:09:11.352Z,9.30
2023-12-29T01:11:38.102Z,9.30
2023-12-29T01:14:05.025Z,9.30
2023-12-29T01:16:33.249Z,9.30
2023-12-29T01:19:00.076Z,9.30
2023-12-29T01:21:27.173Z,9.30
2023-12-29T01:23:53.890Z,9.30
2023-12-29T01:26:20.630Z,9.30
2023-12-29T01:28:47.307Z,9.40
2023-12-29T01:31:15.053Z,9.40
2023-12-29T01:33:41.876Z,9.50
2023-12-29T01:36:15.086Z,9.60
2023-12-29T01:38:44.756Z,9.50
2023-12-29T01:41:11.468Z,9.50
2023-12-29T01:44:01.181Z,9.50
2023-12-29T01:46:31.350Z,9.40
2023-12-29T01:48:59.492Z,9.50
2023-12-29T01:51:28.268Z,9.40
2023-12-29T01:53:57.817Z,9.40
2023-12-29T01:56:25.030Z,9.30
2023-12-29T01:58:52.475Z,9.30
2023-12-29T02:01:19.948Z,9.30
2023-12-29T02:03:47.040Z,9.30
2023-12-29T02:06:14.530Z,9.30
2023-12-29T02:08:44.275Z,9.20
2023-12-29T02:11:11.819Z,9.20
2023-12-29T02:13:38.615Z,9.20
2023-12-29T02:16:24.238Z,9.20
2023-12-29T02:18:52.290Z,9.30
2023-12-29T02:21:24.958Z,9.20
2023-12-29T02:23:51.981Z,9.20
2023-12-29T02:26:23.606Z,9.30
2023-12-29T02:28:58.244Z,9.30
2023-12-29T02:31:28.367Z,9.30
2023-12-29T02:33:56.078Z,9.30
2023-12-29T02:36:24.686Z,9.30
2023-12-29T02:38:52.077Z,9.40
2023-12-29T02:41:19.005Z,9.40
2023-12-29T02:43:45.652Z,9.40
2023-12-29T02:46:12.530Z,9.40
2023-12-29T02:48:40.450Z,9.30
2023-12-29T02:51:09.224Z,9.30
2023-12-29T02:53:36.013Z,9.20
2023-12-29T02:56:02.900Z,9.20
2023-12-29T02:58:29.741Z,9.20
2023-12-29T03:00:56.657Z,9.20
2023-12-29T03:03:23.449Z,9.30
2023-12-29T03:05:50.175Z,9.30
2023-12-29T03:08:16.836Z,9.30
2023-12-29T03:10:43.664Z,9.30
2023-12-29T03:13:10.441Z,9.30
2023-12-29T03:15:37.225Z,9.30
2023-12-29T03:18:04.823Z,9.30
2023-12-29T03:20:32.068Z,9.20
2023-12-29T03:22:58.826Z,9.30
2023-12-29T03:25:25.547Z,9.20
2023-12-29T03:27:52.225Z,9.20
2023-12-29T03:30:19.075Z,9.20
2023-12-29T03:32:45.861Z,9.10
2023-12-29T03:35:12.550Z,9.10
2023-12-29T03:37:39.235Z,9.10
2023-12-29T03:40:08.288Z,9.10
2023-12-29T03:42:35.097Z,9.00
2023-12-29T03:45:01.833Z,9.00
2023-12-29T03:47:29.103Z,9.00
2023-12-29T03:49:55.875Z,8.90
2023-12-29T03:52:23.468Z,8.90
2023-12-29T03:54:50.137Z,8.90
2023-12-29T03:57:16.902Z,9.00
2023-12-29T03:59:43.600Z,9.00
2023-12-29T04:02:10.318Z,9.00
2023-12-29T04:04:39.684Z,9.00
2023-12-29T04:07:07.497Z,9.00
2023-12-29T04:09:34.255Z,9.00
2023-12-29T04:12:01.060Z,9.00
2023-12-29T04:14:27.765Z,9.00
2023-12-29T04:16:54.468Z,9.00
2023-12-29T04:19:22.142Z,9.00
2023-12-29T04:21:48.930Z,9.00
2023-12-29T04:24:15.686Z,9.00
2023-12-29T04:26:42.450Z,9.00
2023-12-29T04:29:09.220Z,9.00
2023-12-29T04:31:36.242Z,9.00
2023-12-29T04:34:03.028Z,9.00
2023-12-29T04:36:29.787Z,9.00
2023-12-29T04:38:56.642Z,9.00
2023-12-29T04:41:23.348Z,9.00
2023-12-29T04:43:50.015Z,9.00
2023-12-29T04:46:16.828Z,9.00
2023-12-29T04:48:43.668Z,9.00
2023-12-29T04:51:10.360Z,9.00
2023-12-29T04:53:37.015Z,9.00
2023-12-29T04:56:03.858Z,8.90
2023-12-29T04:58:30.476Z,8.90
2023-12-29T05:00:57.354Z,8.90
2023-12-29T05:03:24.254Z,8.80
2023-12-29T05:05:51.012Z,8.80
2023-12-29T05:08:17.782Z,8.80
2023-12-29T05:10:45.998Z,8.90
2023-12-29T05:13:12.718Z,8.90
2023-12-29T05:15:39.494Z,8.90
2023-12-29T05:18:06.888Z,8.90
2023-12-29T05:20:34.552Z,9.00
2023-12-29T05:23:01.195Z,9.00
2023-12-29T05:25:27.888Z,8.90
2023-12-29T05:27:54.558Z,9.00
2023-12-29T05:30:21.313Z,9.00
2023-12-29T05:32:48.040Z,9.10
2023-12-29T05:35:14.918Z,9.10
2023-12-29T05:37:41.592Z,9.10
2023-12-29T05:40:09.117Z,9.10
2023-12-29T05:42:35.939Z,9.00
2023-12-29T05:45:02.742Z,9.00
2023-12-29T05:47:29.519Z,9.10
2023-12-29T05:49:56.374Z,9.10
2023-12-29T05:52:23.316Z,9.10
2023-12-29T05:54:50.665Z,9.20
2023-12-29T05:57:17.478Z,9.20
2023-12-29T05:59:44.253Z,9.20
2023-12-29T06:02:10.966Z,9.20
2023-12-29T06:04:37.639Z,9.20
2023-12-29T06:07:04.556Z,9.10
2023-12-29T06:09:31.471Z,9.10
2023-12-29T06:11:58.245Z,9.10
2023-12-29T06:14:24.965Z,9.10
2023-12-29T06:16:53.130Z,9.30
2023-12-29T06:19:20.014Z,9.30
2023-12-29T06:21:47.083Z,9.40
2023-12-29T06:24:14.066Z,9.40
2023-12-29T06:26:45.389Z,9.40
2023-12-29T06:29:12.511Z,9.50
2023-12-29T06:31:43.269Z,9.50
2023-12-29T06:34:10.715Z,9.60
2023-12-29T06:36:37.606Z,9.70
2023-12-29T06:39:04.355Z,9.70
2023-12-29T06:41:31.072Z,9.70
2023-12-29T06:43:57.980Z,9.70
2023-12-29T06:46:24.805Z,9.80
2023-12-29T06:48:51.665Z,9.80
2023-12-29T06:51:19.421Z,9.80
2023-12-29T06:53:50.081Z,9.80
2023-12-29T06:56:17.426Z,9.90
2023-12-29T06:58:45.049Z,9.90
2023-12-29T07:01:11.801Z,10.00
2023-12-29T07:03:38.696Z,10.00
2023-12-29T07:06:05.944Z,10.00
2023-12-29T07:08:32.666Z,10.00
2023-12-29T07:10:59.575Z,10.00
2023-12-29T07:13:26.505Z,10.00
2023-12-29T07:15:53.213Z,10.00
2023-12-29T07:18:20.387Z,10.00
2023-12-29T07:20:47.197Z,10.00
2023-12-29T07:23:13.955Z,10.00
2023-12-29T07:25:40.704Z,10.10
2023-12-29T07:28:07.537Z,10.10
2023-12-29T07:30:34.689Z,10.10
2023-12-29T07:33:03.627Z,10.10
2023-12-29T07:35:31.062Z,10.20
2023-12-29T07:37:58.157Z,10.10
2023-12-29T07:40:25.254Z,10.10
2023-12-29T07:42:52.087Z,10.10
2023-12-29T07:45:19.281Z,10.20
2023-12-29T07:47:46.102Z,10.10
2023-12-29T07:50:12.987Z,10.20
2023-12-29T07:52:39.679Z,10.30
2023-12-29T07:55:06.671Z,10.30
2023-12-29T07:57:33.451Z,10.40
2023-12-29T08:00:00.200Z,10.40
2023-12-29T08:02:26.929Z,10.50
2023-12-29T08:04:55.423Z,10.50
2023-12-29T08:07:22.073Z,10.50
2023-12-29T08:09:48.929Z,10.50
2023-12-29T08:12:15.670Z,10.60
2023-12-29T08:14:42.415Z,10.60
2023-12-29T08:17:09.972Z,10.60
2023-12-29T08:19:37.470Z,10.70
2023-12-29T08:22:04.397Z,10.70
2023-12-29T08:24:31.078Z,10.70
2023-12-29T08:26:57.819Z,10.70
2023-12-29T08:29:26.642Z,10.70
2023-12-29T08:31:53.749Z,10.70
2023-12-29T08:34:21.282Z,10.70
2023-12-29T08:36:48.233Z,10.80
2023-12-29T08:39:15.986Z,10.80
2023-12-29T08:41:42.671Z,10.80
2023-12-29T08:44:09.906Z,10.80
2023-12-29T08:46:36.589Z,10.80
2023-12-29T08:49:03.574Z,10.80
2023-12-29T08:51:30.386Z,10.80
2023-12-29T08:53:57.148Z,10.80
2023-12-29T08:56:26.023Z,10.90
2023-12-29T08:58:54.094Z,10.90
2023-12-29T09:01:20.961Z,10.90
2023-12-29T09:03:47.990Z,10.90
2023-12-29T09:06:15.283Z,10.90
2023-12-29T09:08:42.028Z,10.90
2023-12-29T09:11:08.801Z,10.90
2023-12-29T09:13:35.491Z,10.90
2023-12-29T09:16:02.282Z,11.00
2023-12-29T09:18:29.167Z,10.90
2023-12-29T09:20:55.914Z,11.00
2023-12-29T09:23:22.711Z,11.00
2023-12-29T09:25:49.732Z,11.10
2023-12-29T09:28:16.710Z,11.10
2023-12-29T09:30:43.667Z,11.10
2023-12-29T09:33:13.486Z,11.10
2023-12-29T09:35:40.965Z,11.20
2023-12-29T09:38:07.811Z,11.20
2023-12-29T09:40:34.536Z,11.30
2023-12-29T09:43:05.211Z,11.30
2023-12-29T09:45:35.429Z,11.30
2023-12-29T09:48:04.554Z,11.30
2023-12-29T09:50:32.363Z,11.40
2023-12-29T09:53:00.700Z,11.50
2023-12-29T09:55:27.941Z,11.50
2023-12-29T09:57:55.881Z,11.60
2023-12-29T10:00:23.642Z,11.60
2023-12-29T10:02:53.637Z,11.60
2023-12-29T10:05:20.417Z,11.70
2023-12-29T10:07:48.404Z,11.70
2023-12-29T10:10:19.809Z,11.80
2023-12-29T10:12:49.188Z,11.80
2023-12-29T10:15:29.511Z,11.90
2023-12-29T10:18:00.614Z,11.90
2023-12-29T10:20:50.368Z,12.00
2023-12-29T10:23:21.361Z,12.00
2023-12-29T10:25:49.676Z,11.90
2023-12-29T10:28:18.498Z,11.90
2023-12-29T10:30:45.574Z,11.90
2023-12-29T10:33:22.825Z,12.00
2023-12-29T10:36:04.957Z,11.90
2023-12-29T10:38:32.334Z,12.00
2023-12-29T10:41:15.590Z,11.90
2023-12-29T10:43:44.034Z,11.90
2023-12-29T10:46:12.400Z,11.90
2023-12-29T10:48:40.381Z,11.90
2023-12-29T10:51:07.486Z,11.90
2023-12-29T10:53:39.195Z,11.90
2023-12-29T10:56:21.143Z,11.90
2023-12-29T10:58:59.997Z,11.90
2023-12-29T11:01:26.901Z,12.00
2023-12-29T11:04:01.112Z,12.00
2023-12-29T11:06:30.203Z,12.10
2023-12-29T11:08:57.885Z,12.00
2023-12-29T11:11:24.819Z,12.00
2023-12-29T11:13:51.815Z,12.00
2023-12-29T11:16:22.485Z,12.00
2023-12-29T11:18:52.120Z,11.90
2023-12-29T11:21:22.682Z,11.90
2023-12-29T11:23:49.670Z,11.90
2023-12-29T11:26:17.819Z,12.00
2023-12-29T11:28:47.308Z,12.00
2023-12-29T11:31:14.260Z,12.00
2023-12-29T11:33:43.663Z,12.10
2023-12-29T11:36:33.640Z,12.20
2023-12-29T11:39:13.435Z,12.20
2023-12-29T11:41:59.261Z,12.20
2023-12-29T11:44:30.864Z,12.20
2023-12-29T11:46:58.751Z,12.20
2023-12-29T11:49:25.583Z,12.40
2023-12-29T11:51:52.837Z,12.40
2023-12-29T11:54:27.543Z,12.40
2023-12-29T11:56:55.201Z,12.40
2023-12-29T11:59:24.255Z,12.50
2023-12-29T12:01:59.557Z,12.50
2023-12-29T12:04:44.170Z,12.50
2023-12-29T12:07:18.650Z,12.50
2023-12-29T12:09:45.630Z,12.60
2023-12-29T12:12:13.064Z,12.50
2023-12-29T12:14:48.465Z,12.60
2023-12-29T12:17:34.669Z,12.60
2023-12-29T12:20:11.492Z,12.70
2023-12-29T12:22:39.730Z,12.60
2023-12-29T12:25:07.878Z,12.60
2023-12-29T12:27:38.413Z,12.70
2023-12-29T12:30:05.896Z,12.70
2023-12-29T12:32:33.477Z,12.70
2023-12-29T12:35:00.381Z,12.70
2023-12-29T12:37:29.289Z,12.70
2023-12-29T12:39:56.327Z,12.70
2023-12-29T12:42:24.299Z,12.70
2023-12-29T12:44:57.176Z,12.70
2023-12-29T12:47:46.485Z,12.80
2023-12-29T12:50:14.259Z,12.80
2023-12-29T12:52:41.284Z,12.90
2023-12-29T12:55:09.508Z,12.80
2023-12-29T12:57:38.108Z,12.90
2023-12-29T13:00:06.918Z,12.80
2023-12-29T13:02:35.195Z,12.80
2023-12-29T13:05:06.197Z,12.80
2023-12-29T13:07:33.000Z,12.80
2023-12-29T13:09:59.808Z,12.80
2023-12-29T13:12:26.537Z,12.70
2023-12-29T13:14:53.263Z,12.70
2023-12-29T13:17:21.922Z,12.70
2023-12-29T13:19:58.799Z,12.70
2023-12-29T13:22:28.410Z,12.60
2023-12-29T13:24:56.329Z,12.60
2023-12-29T13:27:23.492Z,12.60
2023-12-29T13:29:51.239Z,12.60
2023-12-29T13:32:22.023Z,12.60
2023-12-29T13:35:05.485Z,12.60
2023-12-29T13:37:47.050Z,12.50
2023-12-29T13:40:16.819Z,12.40
2023-12-29T13:42:49.776Z,12.40
2023-12-29T13:45:18.141Z,12.30
2023-12-29T13:47:46.970Z,12.30
2023-12-29T13:50:13.854Z,12.30
2023-12-29T13:52:41.282Z,12.20
2023-12-29T13:55:08.418Z,12.20
2023-12-29T13:57:36.702Z,12.10
2023-12-29T14:00:27.216Z,12.00
2023-12-29T14:02:57.033Z,12.10
2023-12-29T14:05:48.747Z,12.00
2023-12-29T14:08:24.193Z,12.10
2023-12-29T14:10:51.107Z,12.10
2023-12-29T14:13:19.131Z,12.10
2023-12-29T14:15:53.595Z,12.10
2023-12-29T14:18:29.321Z,12.10
2023-12-29T14:20:56.041Z,12.10
2023-12-29T14:23:22.830Z,12.00
2023-12-29T14:25:49.826Z,11.90
2023-12-29T14:28:24.483Z,11.90
2023-12-29T14:31:03.213Z,11.90
2023-12-29T14:33:30.145Z,11.80
2023-12-29T14:35:56.899Z,11.80
2023-12-29T14:38:25.639Z,11.70
2023-12-29T14:40:52.413Z,11.70
2023-12-29T14:43:19.327Z,11.70
2023-12-29T14:45:46.166Z,11.60
2023-12-29T14:48:13.187Z,11.60
2023-12-29T14:50:39.967Z,11.50
2023-12-29T14:53:06.721Z,11.50
2023-12-29T14:55:33.554Z,11.50
2023-12-29T14:58:00.632Z,11.50
2023-12-29T15:00:27.501Z,11.50
2023-12-29T15:02:54.209Z,11.50
2023-12-29T15:05:20.956Z,11.50
2023-12-29T15:07:47.723Z,11.50
2023-12-29T15:10:14.607Z,11.50
2023-12-29T15:12:42.054Z,11.50
2023-12-29T15:15:09.330Z,11.50
2023-12-29T15:17:38.943Z,11.40
2023-12-29T15:20:07.317Z,11.30
2023-12-29T15:22:34.628Z,11.30
2023-12-29T15:25:01.426Z,11.30
2023-12-29T15:27:29.496Z,11.20
2023-12-29T15:29:57.673Z,11.30
2023-12-29T15:32:24.400Z,11.30
2023-12-29T15:34:51.190Z,11.20
2023-12-29T15:37:19.913Z,11.30
2023-12-29T15:39:46.785Z,11.30
2023-12-29T15:42:13.530Z,11.40
2023-12-29T15:44:40.298Z,11.30
2023-12-29T15:47:07.046Z,11.30
2023-12-29T15:49:33.971Z,11.30
2023-12-29T15:52:00.867Z,11.30
2023-12-29T15:54:29.619Z,11.20
2023-12-29T15:56:56.368Z,11.20
2023-12-29T15:59:23.081Z,11.10
2023-12-29T16:01:50.013Z,11.00
2023-12-29T16:04:16.938Z,11.00
2023-12-29T16:06:43.704Z,11.00
2023-12-29T16:09:10.793Z,11.00
2023-12-29T16:11:37.967Z,11.00
2023-12-29T16:14:04.730Z,10.90
2023-12-29T16:16:32.092Z,10.90
2023-12-29T16:19:02.786Z,10.80
2023-12-29T16:21:35.785Z,10.80
2023-12-29T16:24:03.936Z,10.70
2023-12-29T16:26:38.338Z,10.70
2023-12-29T16:29:10.104Z,10.70
2023-12-29T16:31:37.234Z,10.60
2023-12-29T16:34:04.147Z,10.60
2023-12-29T16:36:31.201Z,10.60
2023-12-29T16:38:57.876Z,10.60
2023-12-29T16:41:24.695Z,10.70
2023-12-29T16:43:51.520Z,10.70
2023-12-29T16:46:18.274Z,10.60
2023-12-29T16:48:45.050Z,10.60
2023-12-29T16:51:12.107Z,10.50
2023-12-29T16:53:39.419Z,10.50
2023-12-29T16:56:06.706Z,10.50
2023-12-29T16:58:34.078Z,10.40
2023-12-29T17:01:01.431Z,10.40
2023-12-29T17:03:32.057Z,10.40
2023-12-29T17:05:58.809Z,10.40
2023-12-29T17:08:25.518Z,10.40
2023-12-29T17:10:52.187Z,10.30
2023-12-29T17:13:19.320Z,10.40
2023-12-29T17:15:46.061Z,10.40
2023-12-29T17:18:12.995Z,10.40
2023-12-29T17:20:40.575Z,10.50
2023-12-29T17:23:08.796Z,10.60
2023-12-29T17:25:42.938Z,10.60
2023-12-29T17:28:20.123Z,10.60
2023-12-29T17:30:47.009Z,10.70
2023-12-29T17:33:14.020Z,10.70
2023-12-29T17:35:40.780Z,10.70
2023-12-29T17:38:07.472Z,10.70
2023-12-29T17:40:34.205Z,10.70
2023-12-29T17:43:03.989Z,10.70
2023-12-29T17:45:30.986Z,10.70
2023-12-29T17:47:57.793Z,10.70
2023-12-29T17:50:24.732Z,10.70
2023-12-29T17:52:51.456Z,10.80
2023-12-29T17:55:19.060Z,10.70
2023-12-29T17:57:45.848Z,10.70
2023-12-29T18:00:13.181Z,10.70
2023-12-29T18:02:39.881Z,10.70
2023-12-29T18:05:06.826Z,10.60
2023-12-29T18:07:33.574Z,10.60
2023-12-29T18:10:00.549Z,10.50
2023-12-29T18:12:27.280Z,10.60
2023-12-29T18:14:54.623Z,10.60
2023-12-29T18:17:24.338Z,10.50
2023-12-29T18:19:51.460Z,10.50
2023-12-29T18:22:19.135Z,10.50
2023-12-29T18:24:46.305Z,10.50
2023-12-29T18:27:15.072Z,10.50
2023-12-29T18:29:42.965Z,10.60
2023-12-29T18:32:19.481Z,10.70
2023-12-29T18:34:52.500Z,10.70
2023-12-29T18:37:20.718Z,10.70
2023-12-29T18:39:48.617Z,10.70
2023-12-29T18:42:15.876Z,10.70
2023-12-29T18:44:42.676Z,10.70
2023-12-29T18:47:10.434Z,10.70
2023-12-29T18:49:37.783Z,10.70
2023-12-29T18:52:04.920Z,10.70
2023-12-29T18:54:34.642Z,10.70
2023-12-29T18:57:02.968Z,10.70
2023-12-29T18:59:30.196Z,10.70
2023-12-29T19:01:59.043Z,10.70
2023-12-29T19:04:26.804Z,10.70
2023-12-29T19:06:53.722Z,10.80
2023-12-29T19:09:20.686Z,10.80
2023-12-29T19:11:47.801Z,10.80
2023-12-29T19:14:14.720Z,10.80
2023-12-29T19:16:41.853Z,10.80
2023-12-29T19:19:09.256Z,10.90
2023-12-29T19:21:49.627Z,10.90
2023-12-29T19:24:17.960Z,10.80
2023-12-29T19:26:44.749Z,10.90
2023-12-29T19:29:11.493Z,10.90
2023-12-29T19:31:38.665Z,10.90
2023-12-29T19:34:07.154Z,10.80
2023-12-29T19:36:34.033Z,10.80
2023-12-29T19:39:00.694Z,10.80
2023-12-29T19:41:35.080Z,10.80
2023-12-29T19:44:02.241Z,10.80
2023-12-29T19:46:29.475Z,10.90
2023-12-29T19:48:56.523Z,10.90
2023-12-29T19:51:23.688Z,10.90
2023-12-29T19:53:51.580Z,10.90
2023-12-29T19:56:26.230Z,10.90
2023-12-29T19:58:54.312Z,10.80
2023-12-29T20:01:24.527Z,10.80
2023-12-29T20:03:51.582Z,10.80
2023-12-29T20:06:21.309Z,10.80
2023-12-29T20:08:48.538Z,10.80
2023-12-29T20:11:15.307Z,10.70
2023-12-29T20:13:42.411Z,10.50
2023-12-29T20:16:09.281Z,10.30
2023-12-29T20:18:37.065Z,10.30
2023-12-29T20:21:04.098Z,10.20
2023-12-29T20:23:30.930Z,10.30
2023-12-29T20:25:57.722Z,10.20
2023-12-29T20:28:24.600Z,10.30
2023-12-29T20:30:51.414Z,10.40
2023-12-29T20:33:18.716Z,10.40
2023-12-29T20:35:45.482Z,10.40
2023-12-29T20:38:12.257Z,10.50
2023-12-29T20:40:38.971Z,10.50
2023-12-29T20:43:06.169Z,10.40
2023-12-29T20:45:32.977Z,10.50
2023-12-29T20:47:59.773Z,10.50
2023-12-29T20:50:26.600Z,10.40
2023-12-29T20:52:53.361Z,10.40
2023-12-29T20:55:20.232Z,10.40
2023-12-29T20:57:46.972Z,10.40
2023-12-29T21:00:14.009Z,10.30
2023-12-29T21:02:40.769Z,10.30
2023-12-29T21:05:16.115Z,10.30
2023-12-29T21:07:43.953Z,10.30
2023-12-29T21:10:11.822Z,10.30
2023-12-29T21:12:38.779Z,10.20
2023-12-29T21:15:06.850Z,10.20
2023-12-29T21:17:35.188Z,10.20
2023-12-29T21:20:04.064Z,10.30
2023-12-29T21:22:31.651Z,10.30
2023-12-29T21:24:58.775Z,10.40
2023-12-29T21:27:25.518Z,10.40
2023-12-29T21:29:54.914Z,10.40
2023-12-29T21:32:21.753Z,10.50
2023-12-29T21:34:48.708Z,10.50
2023-12-29T21:37:15.511Z,10.50
2023-12-29T21:39:42.378Z,10.60
2023-12-29T21:42:09.093Z,10.60
2023-12-29T21:44:35.846Z,10.60
2023-12-29T21:47:02.708Z,10.60
2023-12-29T21:49:30.210Z,10.60
2023-12-29T21:51:56.975Z,10.60
2023-12-29T21:54:23.658Z,10.60
2023-12-29T21:56:50.307Z,10.50
2023-12-29T21:59:16.993Z,10.50
2023-12-29T22:01:43.715Z,10.50
2023-12-29T22:04:10.977Z,10.50
2023-12-29T22:06:39.973Z,10.50
2023-12-29T22:09:07.234Z,10.40
2023-12-29T22:11:33.947Z,10.40
2023-12-29T22:14:01.315Z,10.40
2023-12-29T22:16:28.661Z,10.30
2023-12-29T22:18:55.716Z,10.30
2023-12-29T22:21:22.545Z,10.20
2023-12-29T22:23:49.455Z,10.20
2023-12-29T22:26:17.723Z,10.20
2023-12-29T22:28:46.393Z,10.20
2023-12-29T22:31:14.193Z,10.20
2023-12-29T22:33:45.911Z,10.30
2023-12-29T22:36:14.068Z,10.20
2023-12-29T22:38:41.701Z,10.20
2023-12-29T22:41:09.649Z,10.20
2023-12-29T22:43:37.230Z,10.10
2023-12-29T22:46:04.493Z,10.10
2023-12-29T22:48:31.343Z,10.00
2023-12-29T22:50:58.814Z,10.00
2023-12-29T22:53:29.068Z,10.00
2023-12-29T22:55:55.882Z,10.00
2023-12-29T22:58:23.569Z,10.00
2023-12-29T23:00:51.421Z,10.00
2023-12-29T23:03:20.017Z,10.00
2023-12-29T23:05:47.682Z,9.90
2023-12-29T23:08:15.084Z,9.90
2023-12-29T23:10:41.975Z,9.90
2023-12-29T23:13:10.918Z,9.80
2023-12-29T23:15:38.392Z,9.80
2023-12-29T23:18:06.719Z,9.70
2023-12-29T23:20:33.714Z,9.70
2023-12-29T23:23:00.663Z,9.70
2023-12-29T23:25:27.754Z,9.80
2023-12-29T23:27:54.662Z,9.80
2023-12-29T23:30:21.616Z,9.80
2023-12-29T23:32:48.419Z,9.90
2023-12-29T23:35:23.475Z,10.00
2023-12-29T23:37:52.136Z,10.10
2023-12-29T23:40:19.210Z,10.10
2023-12-29T23:42:46.271Z,10.10
2023-12-29T23:45:13.417Z,10.10
2023-12-29T23:47:40.455Z,10.20
2023-12-29T23:50:07.868Z,10.20
2023-12-29T23:52:35.097Z,10.20
2023-12-29T23:55:01.996Z,10.20
2023-12-29T23:57:28.817Z,10.20
2023-12-29T23:59:55.629Z,10.30
